sensor_id;sensor_type;location;lat;lon;timestamp;temperature;humidity
59148;DHT22;44930;52.878;6.168;2023-02-28T00:00:16;3.50;99.90
59148;DHT22;44930;52.878;6.168;2023-02-28T00:02:42;3.20;99.90
59148;DHT22;44930;52.878;6.168;2023-02-28T00:05:09;3.60;99.90
59148;DHT22;44930;52.878;6.168;2023-02-28T00:07:36;3.50;99.90
59148;DHT22;44930;52.878;6.168;2023-02-28T00:10:02;3.40;99.90
59148;DHT22;44930;52.878;6.168;2023-02-28T00:14:54;3.50;99.90
59148;DHT22;44930;52.878;6.168;2023-02-28T00:17:20;3.30;99.90
59148;DHT22;44930;52.878;6.168;2023-02-28T00:19:50;3.30;99.90
59148;DHT22;44930;52.878;6.168;2023-02-28T00:22:18;3.40;99.90
59148;DHT22;44930;52.878;6.168;2023-02-28T00:24:44;3.40;99.90
59148;DHT22;44930;52.878;6.168;2023-02-28T00:27:10;3.40;99.90
59148;DHT22;44930;52.878;6.168;2023-02-28T00:29:35;3.40;99.90
59148;DHT22;44930;52.878;6.168;2023-02-28T00:32:01;3.50;99.90
59148;DHT22;44930;52.878;6.168;2023-02-28T00:34:27;3.50;99.90
59148;DHT22;44930;52.878;6.168;2023-02-28T00:36:53;3.50;99.90
59148;DHT22;44930;52.878;6.168;2023-02-28T00:41:44;3.60;99.90
59148;DHT22;44930;52.878;6.168;2023-02-28T00:44:10;3.40;99.90
59148;DHT22;44930;52.878;6.168;2023-02-28T00:49:01;3.50;99.90
59148;DHT22;44930;52.878;6.168;2023-02-28T00:51:27;3.50;99.90
59148;DHT22;44930;52.878;6.168;2023-02-28T00:53:52;3.40;99.90
59148;DHT22;44930;52.878;6.168;2023-02-28T00:56:18;3.40;99.90
59148;DHT22;44930;52.878;6.168;2023-02-28T00:58:43;3.40;99.90
59148;DHT22;44930;52.878;6.168;2023-02-28T01:01:09;3.40;99.90
59148;DHT22;44930;52.878;6.168;2023-02-28T01:03:35;3.50;99.90
59148;DHT22;44930;52.878;6.168;2023-02-28T01:08:26;3.40;99.90
59148;DHT22;44930;52.878;6.168;2023-02-28T01:10:53;3.60;99.90
59148;DHT22;44930;52.878;6.168;2023-02-28T01:13:19;3.50;99.90
59148;DHT22;44930;52.878;6.168;2023-02-28T01:15:52;3.50;99.90
59148;DHT22;44930;52.878;6.168;2023-02-28T01:20:46;3.40;99.90
59148;DHT22;44930;52.878;6.168;2023-02-28T01:23:12;3.50;99.90
59148;DHT22;44930;52.878;6.168;2023-02-28T01:25:38;3.50;99.90
59148;DHT22;44930;52.878;6.168;2023-02-28T01:28:03;3.50;99.90
59148;DHT22;44930;52.878;6.168;2023-02-28T01:30:30;3.50;99.90
59148;DHT22;44930;52.878;6.168;2023-02-28T01:32:55;3.50;99.90
59148;DHT22;44930;52.878;6.168;2023-02-28T01:35:21;3.50;99.90
59148;DHT22;44930;52.878;6.168;2023-02-28T01:37:46;3.30;99.90
59148;DHT22;44930;52.878;6.168;2023-02-28T01:40:13;3.30;99.90
59148;DHT22;44930;52.878;6.168;2023-02-28T01:42:39;3.40;99.90
59148;DHT22;44930;52.878;6.168;2023-02-28T01:45:22;3.40;99.90
59148;DHT22;44930;52.878;6.168;2023-02-28T01:47:50;3.40;99.90
59148;DHT22;44930;52.878;6.168;2023-02-28T01:50:19;3.40;99.90
59148;DHT22;44930;52.878;6.168;2023-02-28T01:52:47;3.30;99.90
59148;DHT22;44930;52.878;6.168;2023-02-28T01:55:14;3.40;99.90
59148;DHT22;44930;52.878;6.168;2023-02-28T01:57:50;3.30;99.90
59148;DHT22;44930;52.878;6.168;2023-02-28T02:00:18;3.40;99.90
59148;DHT22;44930;52.878;6.168;2023-02-28T02:02:47;3.20;99.90
59148;DHT22;44930;52.878;6.168;2023-02-28T02:05:22;3.40;99.90
59148;DHT22;44930;52.878;6.168;2023-02-28T02:07:51;3.40;99.90
59148;DHT22;44930;52.878;6.168;2023-02-28T02:10:30;3.40;99.90
59148;DHT22;44930;52.878;6.168;2023-02-28T02:13:14;3.30;99.90
59148;DHT22;44930;52.878;6.168;2023-02-28T02:29:42;3.50;99.90
59148;DHT22;44930;52.878;6.168;2023-02-28T02:35:22;3.60;99.90
59148;DHT22;44930;52.878;6.168;2023-02-28T02:40:33;3.60;99.90
59148;DHT22;44930;52.878;6.168;2023-02-28T02:43:13;3.40;99.90
59148;DHT22;44930;52.878;6.168;2023-02-28T02:45:57;3.40;99.90
59148;DHT22;44930;52.878;6.168;2023-02-28T02:51:01;3.50;99.90
59148;DHT22;44930;52.878;6.168;2023-02-28T02:53:32;3.60;99.90
59148;DHT22;44930;52.878;6.168;2023-02-28T02:56:01;3.50;99.90
59148;DHT22;44930;52.878;6.168;2023-02-28T02:58:35;3.20;99.90
59148;DHT22;44930;52.878;6.168;2023-02-28T03:01:08;3.40;99.90
59148;DHT22;44930;52.878;6.168;2023-02-28T03:03:35;3.40;99.90
59148;DHT22;44930;52.878;6.168;2023-02-28T03:06:02;3.40;99.90
59148;DHT22;44930;52.878;6.168;2023-02-28T03:08:33;3.40;99.90
59148;DHT22;44930;52.878;6.168;2023-02-28T03:13:55;3.60;99.90
59148;DHT22;44930;52.878;6.168;2023-02-28T03:16:35;3.70;99.90
59148;DHT22;44930;52.878;6.168;2023-02-28T03:22:19;3.50;99.90
59148;DHT22;44930;52.878;6.168;2023-02-28T03:24:54;3.50;99.90
59148;DHT22;44930;52.878;6.168;2023-02-28T03:35:34;3.50;99.90
59148;DHT22;44930;52.878;6.168;2023-02-28T03:38:10;3.50;99.90
59148;DHT22;44930;52.878;6.168;2023-02-28T03:40:42;3.40;99.90
59148;DHT22;44930;52.878;6.168;2023-02-28T03:43:13;3.40;99.90
59148;DHT22;44930;52.878;6.168;2023-02-28T03:45:41;3.40;99.90
59148;DHT22;44930;52.878;6.168;2023-02-28T03:48:28;3.30;99.90
59148;DHT22;44930;52.878;6.168;2023-02-28T03:50:58;3.30;99.90
59148;DHT22;44930;52.878;6.168;2023-02-28T03:53:29;3.30;99.90
59148;DHT22;44930;52.878;6.168;2023-02-28T03:56:16;3.30;99.90
59148;DHT22;44930;52.878;6.168;2023-02-28T03:58:45;3.60;99.90
59148;DHT22;44930;52.878;6.168;2023-02-28T04:03:41;3.30;99.90
59148;DHT22;44930;52.878;6.168;2023-02-28T04:06:12;3.80;99.90
59148;DHT22;44930;52.878;6.168;2023-02-28T04:08:38;3.30;99.90
59148;DHT22;44930;52.878;6.168;2023-02-28T04:13:32;3.30;99.90
59148;DHT22;44930;52.878;6.168;2023-02-28T04:18:24;3.30;99.90
59148;DHT22;44930;52.878;6.168;2023-02-28T04:20:50;3.30;99.90
59148;DHT22;44930;52.878;6.168;2023-02-28T04:23:15;3.10;99.90
59148;DHT22;44930;52.878;6.168;2023-02-28T04:25:41;3.20;99.90
59148;DHT22;44930;52.878;6.168;2023-02-28T04:28:06;3.10;99.90
59148;DHT22;44930;52.878;6.168;2023-02-28T04:30:32;3.20;99.90
59148;DHT22;44930;52.878;6.168;2023-02-28T04:32:58;3.10;99.90
59148;DHT22;44930;52.878;6.168;2023-02-28T04:35:24;3.10;99.90
59148;DHT22;44930;52.878;6.168;2023-02-28T04:37:49;3.10;99.90
59148;DHT22;44930;52.878;6.168;2023-02-28T04:40:15;3.00;99.90
59148;DHT22;44930;52.878;6.168;2023-02-28T04:42:41;3.00;99.90
59148;DHT22;44930;52.878;6.168;2023-02-28T04:45:07;3.00;99.90
59148;DHT22;44930;52.878;6.168;2023-02-28T04:50:01;3.20;99.90
59148;DHT22;44930;52.878;6.168;2023-02-28T04:52:27;3.00;99.90
59148;DHT22;44930;52.878;6.168;2023-02-28T04:54:53;2.90;99.90
59148;DHT22;44930;52.878;6.168;2023-02-28T04:57:18;2.90;99.90
59148;DHT22;44930;52.878;6.168;2023-02-28T04:59:44;2.90;99.90
59148;DHT22;44930;52.878;6.168;2023-02-28T05:02:09;3.00;99.90
59148;DHT22;44930;52.878;6.168;2023-02-28T05:04:36;2.90;99.90
59148;DHT22;44930;52.878;6.168;2023-02-28T05:07:02;2.60;99.90
59148;DHT22;44930;52.878;6.168;2023-02-28T05:09:28;2.80;99.90
59148;DHT22;44930;52.878;6.168;2023-02-28T05:11:55;2.80;99.90
59148;DHT22;44930;52.878;6.168;2023-02-28T05:14:20;2.70;99.90
59148;DHT22;44930;52.878;6.168;2023-02-28T05:16:46;2.70;99.90
59148;DHT22;44930;52.878;6.168;2023-02-28T05:19:12;2.70;99.90
59148;DHT22;44930;52.878;6.168;2023-02-28T05:21:48;2.70;99.90
59148;DHT22;44930;52.878;6.168;2023-02-28T05:24:14;2.70;99.90
59148;DHT22;44930;52.878;6.168;2023-02-28T05:26:41;2.60;99.90
59148;DHT22;44930;52.878;6.168;2023-02-28T05:29:08;2.40;99.90
59148;DHT22;44930;52.878;6.168;2023-02-28T05:34:01;2.40;99.90
59148;DHT22;44930;52.878;6.168;2023-02-28T05:36:26;2.40;99.90
59148;DHT22;44930;52.878;6.168;2023-02-28T05:41:19;2.00;99.90
59148;DHT22;44930;52.878;6.168;2023-02-28T05:43:45;2.40;99.90
59148;DHT22;44930;52.878;6.168;2023-02-28T05:46:12;2.50;99.90
59148;DHT22;44930;52.878;6.168;2023-02-28T05:48:40;2.40;99.90
59148;DHT22;44930;52.878;6.168;2023-02-28T05:53:33;2.50;99.90
59148;DHT22;44930;52.878;6.168;2023-02-28T05:55:59;2.70;99.90
59148;DHT22;44930;52.878;6.168;2023-02-28T05:58:24;2.40;99.90
59148;DHT22;44930;52.878;6.168;2023-02-28T06:00:56;2.50;99.90
59148;DHT22;44930;52.878;6.168;2023-02-28T06:08:15;2.50;99.90
59148;DHT22;44930;52.878;6.168;2023-02-28T06:10:41;2.40;99.90
59148;DHT22;44930;52.878;6.168;2023-02-28T06:13:07;2.40;99.90
59148;DHT22;44930;52.878;6.168;2023-02-28T06:15:32;2.50;99.90
59148;DHT22;44930;52.878;6.168;2023-02-28T06:17:58;2.40;99.90
59148;DHT22;44930;52.878;6.168;2023-02-28T06:25:19;2.20;99.90
59148;DHT22;44930;52.878;6.168;2023-02-28T06:30:11;2.40;99.90
59148;DHT22;44930;52.878;6.168;2023-02-28T06:32:37;2.30;99.90
59148;DHT22;44930;52.878;6.168;2023-02-28T06:35:03;2.30;99.90
59148;DHT22;44930;52.878;6.168;2023-02-28T06:37:31;2.20;99.90
59148;DHT22;44930;52.878;6.168;2023-02-28T06:39:56;2.20;99.90
59148;DHT22;44930;52.878;6.168;2023-02-28T06:42:24;2.20;99.90
59148;DHT22;44930;52.878;6.168;2023-02-28T06:44:57;2.20;99.90
59148;DHT22;44930;52.878;6.168;2023-02-28T06:47:23;2.10;99.90
59148;DHT22;44930;52.878;6.168;2023-02-28T06:49:49;2.20;99.90
59148;DHT22;44930;52.878;6.168;2023-02-28T06:52:15;2.20;99.90
59148;DHT22;44930;52.878;6.168;2023-02-28T06:54:40;2.20;99.90
59148;DHT22;44930;52.878;6.168;2023-02-28T06:57:06;2.10;99.90
59148;DHT22;44930;52.878;6.168;2023-02-28T06:59:32;2.00;99.90
59148;DHT22;44930;52.878;6.168;2023-02-28T07:01:57;2.20;99.90
59148;DHT22;44930;52.878;6.168;2023-02-28T07:04:23;2.30;99.90
59148;DHT22;44930;52.878;6.168;2023-02-28T07:06:49;2.20;99.90
59148;DHT22;44930;52.878;6.168;2023-02-28T07:09:14;2.30;99.90
59148;DHT22;44930;52.878;6.168;2023-02-28T07:11:41;2.30;99.90
59148;DHT22;44930;52.878;6.168;2023-02-28T07:14:08;2.30;99.90
59148;DHT22;44930;52.878;6.168;2023-02-28T07:16:34;2.30;99.90
59148;DHT22;44930;52.878;6.168;2023-02-28T07:19:00;2.20;99.90
59148;DHT22;44930;52.878;6.168;2023-02-28T07:21:26;2.20;99.90
59148;DHT22;44930;52.878;6.168;2023-02-28T07:23:51;2.20;99.90
59148;DHT22;44930;52.878;6.168;2023-02-28T07:26:18;2.30;99.90
59148;DHT22;44930;52.878;6.168;2023-02-28T07:28:45;2.40;99.90
59148;DHT22;44930;52.878;6.168;2023-02-28T07:31:12;2.30;99.90
59148;DHT22;44930;52.878;6.168;2023-02-28T07:36:13;2.10;99.90
59148;DHT22;44930;52.878;6.168;2023-02-28T07:38:45;2.60;99.90
59148;DHT22;44930;52.878;6.168;2023-02-28T07:41:17;2.40;99.90
59148;DHT22;44930;52.878;6.168;2023-02-28T07:43:43;2.50;99.90
59148;DHT22;44930;52.878;6.168;2023-02-28T07:46:11;2.60;99.90
59148;DHT22;44930;52.878;6.168;2023-02-28T07:48:38;2.60;99.90
59148;DHT22;44930;52.878;6.168;2023-02-28T07:51:03;2.50;99.90
59148;DHT22;44930;52.878;6.168;2023-02-28T07:53:30;2.60;99.90
59148;DHT22;44930;52.878;6.168;2023-02-28T07:55:59;2.60;99.90
59148;DHT22;44930;52.878;6.168;2023-02-28T07:58:26;2.50;99.90
59148;DHT22;44930;52.878;6.168;2023-02-28T08:03:20;2.70;99.90
59148;DHT22;44930;52.878;6.168;2023-02-28T08:05:46;2.60;99.90
59148;DHT22;44930;52.878;6.168;2023-02-28T08:08:13;2.70;99.90
59148;DHT22;44930;52.878;6.168;2023-02-28T08:10:39;2.80;99.90
59148;DHT22;44930;52.878;6.168;2023-02-28T08:13:05;2.70;99.90
59148;DHT22;44930;52.878;6.168;2023-02-28T08:17:56;2.70;99.90
59148;DHT22;44930;52.878;6.168;2023-02-28T08:20:25;2.60;99.90
59148;DHT22;44930;52.878;6.168;2023-02-28T08:22:51;2.70;99.90
59148;DHT22;44930;52.878;6.168;2023-02-28T08:25:17;2.80;99.90
59148;DHT22;44930;52.878;6.168;2023-02-28T08:27:43;2.80;99.90
59148;DHT22;44930;52.878;6.168;2023-02-28T08:30:13;2.50;99.90
59148;DHT22;44930;52.878;6.168;2023-02-28T08:32:39;2.80;99.90
59148;DHT22;44930;52.878;6.168;2023-02-28T08:35:06;2.90;99.90
59148;DHT22;44930;52.878;6.168;2023-02-28T08:37:32;2.70;99.90
59148;DHT22;44930;52.878;6.168;2023-02-28T08:39:58;2.80;99.90
59148;DHT22;44930;52.878;6.168;2023-02-28T08:42:24;2.80;99.90
59148;DHT22;44930;52.878;6.168;2023-02-28T08:44:49;3.00;99.90
59148;DHT22;44930;52.878;6.168;2023-02-28T08:47:15;3.00;99.90
59148;DHT22;44930;52.878;6.168;2023-02-28T08:49:41;3.10;99.90
59148;DHT22;44930;52.878;6.168;2023-02-28T08:52:06;3.10;99.90
59148;DHT22;44930;52.878;6.168;2023-02-28T08:54:32;3.10;99.90
59148;DHT22;44930;52.878;6.168;2023-02-28T08:56:59;3.10;99.90
59148;DHT22;44930;52.878;6.168;2023-02-28T08:59:25;3.20;99.90
59148;DHT22;44930;52.878;6.168;2023-02-28T09:01:50;3.30;99.90
59148;DHT22;44930;52.878;6.168;2023-02-28T09:04:16;3.30;99.90
59148;DHT22;44930;52.878;6.168;2023-02-28T09:06:41;3.40;99.90
59148;DHT22;44930;52.878;6.168;2023-02-28T09:11:35;3.40;99.90
59148;DHT22;44930;52.878;6.168;2023-02-28T09:14:01;3.60;99.90
59148;DHT22;44930;52.878;6.168;2023-02-28T09:16:29;3.60;99.90
59148;DHT22;44930;52.878;6.168;2023-02-28T09:18:55;3.60;99.90
59148;DHT22;44930;52.878;6.168;2023-02-28T09:21:20;4.00;99.90
59148;DHT22;44930;52.878;6.168;2023-02-28T09:23:48;4.10;99.90
59148;DHT22;44930;52.878;6.168;2023-02-28T09:28:41;4.00;99.90
59148;DHT22;44930;52.878;6.168;2023-02-28T09:31:13;4.20;99.90
59148;DHT22;44930;52.878;6.168;2023-02-28T09:33:39;4.30;99.90
59148;DHT22;44930;52.878;6.168;2023-02-28T09:36:04;4.40;99.90
59148;DHT22;44930;52.878;6.168;2023-02-28T09:38:30;4.50;99.90
59148;DHT22;44930;52.878;6.168;2023-02-28T09:40:58;4.40;99.90
59148;DHT22;44930;52.878;6.168;2023-02-28T09:43:28;4.60;99.90
59148;DHT22;44930;52.878;6.168;2023-02-28T09:46:08;4.90;99.90
59148;DHT22;44930;52.878;6.168;2023-02-28T09:53:56;4.80;99.90
59148;DHT22;44930;52.878;6.168;2023-02-28T09:56:27;4.70;99.90
59148;DHT22;44930;52.878;6.168;2023-02-28T09:59:02;4.70;99.90
59148;DHT22;44930;52.878;6.168;2023-02-28T10:01:33;4.70;99.90
59148;DHT22;44930;52.878;6.168;2023-02-28T10:04:11;4.70;99.90
59148;DHT22;44930;52.878;6.168;2023-02-28T10:06:48;4.90;99.90
59148;DHT22;44930;52.878;6.168;2023-02-28T10:09:30;4.90;99.90
59148;DHT22;44930;52.878;6.168;2023-02-28T10:12:03;5.30;99.90
59148;DHT22;44930;52.878;6.168;2023-02-28T10:14:33;5.00;99.90
59148;DHT22;44930;52.878;6.168;2023-02-28T10:17:07;5.10;99.90
59148;DHT22;44930;52.878;6.168;2023-02-28T10:22:19;5.10;99.90
59148;DHT22;44930;52.878;6.168;2023-02-28T10:24:49;5.10;99.90
59148;DHT22;44930;52.878;6.168;2023-02-28T10:27:20;5.00;99.90
59148;DHT22;44930;52.878;6.168;2023-02-28T10:29:48;5.40;99.90
59148;DHT22;44930;52.878;6.168;2023-02-28T10:32:17;5.20;99.90
59148;DHT22;44930;52.878;6.168;2023-02-28T10:34:43;5.20;99.90
59148;DHT22;44930;52.878;6.168;2023-02-28T10:37:10;5.40;99.90
59148;DHT22;44930;52.878;6.168;2023-02-28T10:42:04;5.30;99.90
59148;DHT22;44930;52.878;6.168;2023-02-28T10:44:29;5.20;99.90
59148;DHT22;44930;52.878;6.168;2023-02-28T10:46:56;5.20;99.90
59148;DHT22;44930;52.878;6.168;2023-02-28T10:49:26;4.90;99.90
59148;DHT22;44930;52.878;6.168;2023-02-28T10:51:59;5.40;99.90
59148;DHT22;44930;52.878;6.168;2023-02-28T10:54:29;5.40;99.90
59148;DHT22;44930;52.878;6.168;2023-02-28T10:59:40;5.60;99.90
59148;DHT22;44930;52.878;6.168;2023-02-28T11:02:34;5.60;99.90
59148;DHT22;44930;52.878;6.168;2023-02-28T11:05:00;5.50;99.90
59148;DHT22;44930;52.878;6.168;2023-02-28T11:07:27;5.50;99.90
59148;DHT22;44930;52.878;6.168;2023-02-28T11:09:55;5.60;99.90
59148;DHT22;44930;52.878;6.168;2023-02-28T11:12:38;5.40;99.90
59148;DHT22;44930;52.878;6.168;2023-02-28T11:15:26;5.70;99.90
59148;DHT22;44930;52.878;6.168;2023-02-28T11:18:23;5.90;99.90
59148;DHT22;44930;52.878;6.168;2023-02-28T11:20:54;5.90;99.90
59148;DHT22;44930;52.878;6.168;2023-02-28T11:23:24;5.50;99.90
59148;DHT22;44930;52.878;6.168;2023-02-28T11:25:52;5.90;99.90
59148;DHT22;44930;52.878;6.168;2023-02-28T11:28:32;5.90;99.90
59148;DHT22;44930;52.878;6.168;2023-02-28T11:33:52;6.10;99.90
59148;DHT22;44930;52.878;6.168;2023-02-28T11:36:26;6.10;99.90
59148;DHT22;44930;52.878;6.168;2023-02-28T11:38:54;6.20;99.90
59148;DHT22;44930;52.878;6.168;2023-02-28T11:46:49;6.30;99.90
59148;DHT22;44930;52.878;6.168;2023-02-28T11:49:32;6.40;99.90
59148;DHT22;44930;52.878;6.168;2023-02-28T12:03:23;6.80;99.90
59148;DHT22;44930;52.878;6.168;2023-02-28T12:06:15;7.00;99.90
59148;DHT22;44930;52.878;6.168;2023-02-28T12:08:49;7.00;99.90
59148;DHT22;44930;52.878;6.168;2023-02-28T12:11:29;7.10;99.90
59148;DHT22;44930;52.878;6.168;2023-02-28T12:16:59;7.40;99.90
59148;DHT22;44930;52.878;6.168;2023-02-28T12:22:55;7.60;99.90
59148;DHT22;44930;52.878;6.168;2023-02-28T12:26:00;7.50;99.90
59148;DHT22;44930;52.878;6.168;2023-02-28T12:28:32;7.50;99.90
59148;DHT22;44930;52.878;6.168;2023-02-28T12:34:16;7.00;99.90
59148;DHT22;44930;52.878;6.168;2023-02-28T12:36:44;7.30;99.90
59148;DHT22;44930;52.878;6.168;2023-02-28T12:39:19;7.10;99.90
59148;DHT22;44930;52.878;6.168;2023-02-28T12:41:51;7.00;99.90
59148;DHT22;44930;52.878;6.168;2023-02-28T12:47:12;6.60;99.90
59148;DHT22;44930;52.878;6.168;2023-02-28T12:50:02;6.90;99.90
59148;DHT22;44930;52.878;6.168;2023-02-28T12:52:37;6.70;99.90
59148;DHT22;44930;52.878;6.168;2023-02-28T12:55:23;6.60;99.90
59148;DHT22;44930;52.878;6.168;2023-02-28T13:00:29;6.60;99.90
59148;DHT22;44930;52.878;6.168;2023-02-28T13:03:37;6.50;99.90
59148;DHT22;44930;52.878;6.168;2023-02-28T13:09:12;6.50;99.90
59148;DHT22;44930;52.878;6.168;2023-02-28T13:11:45;6.40;99.90
59148;DHT22;44930;52.878;6.168;2023-02-28T13:14:29;6.40;99.90
59148;DHT22;44930;52.878;6.168;2023-02-28T13:19:26;6.30;99.90
59148;DHT22;44930;52.878;6.168;2023-02-28T13:21:53;6.30;99.90
59148;DHT22;44930;52.878;6.168;2023-02-28T13:24:39;6.50;99.90
59148;DHT22;44930;52.878;6.168;2023-02-28T13:29:37;6.70;99.90
59148;DHT22;44930;52.878;6.168;2023-02-28T13:35:34;6.50;99.90
59148;DHT22;44930;52.878;6.168;2023-02-28T13:39:59;6.90;99.90
59148;DHT22;44930;52.878;6.168;2023-02-28T13:42:47;7.40;99.90
59148;DHT22;44930;52.878;6.168;2023-02-28T13:47:58;7.40;99.90
59148;DHT22;44930;52.878;6.168;2023-02-28T13:50:37;7.60;99.90
59148;DHT22;44930;52.878;6.168;2023-02-28T13:58:46;8.20;99.90
59148;DHT22;44930;52.878;6.168;2023-02-28T14:06:49;8.00;99.90
59148;DHT22;44930;52.878;6.168;2023-02-28T14:09:25;8.20;99.90
59148;DHT22;44930;52.878;6.168;2023-02-28T14:17:03;8.40;99.90
59148;DHT22;44930;52.878;6.168;2023-02-28T14:19:31;8.40;99.90
59148;DHT22;44930;52.878;6.168;2023-02-28T14:25:41;8.40;99.90
59148;DHT22;44930;52.878;6.168;2023-02-28T14:28:26;8.20;99.90
59148;DHT22;44930;52.878;6.168;2023-02-28T14:31:09;8.20;99.90
59148;DHT22;44930;52.878;6.168;2023-02-28T14:36:37;7.70;99.90
59148;DHT22;44930;52.878;6.168;2023-02-28T14:39:14;7.20;99.90
59148;DHT22;44930;52.878;6.168;2023-02-28T14:41:43;7.30;99.90
59148;DHT22;44930;52.878;6.168;2023-02-28T14:44:19;7.20;99.90
59148;DHT22;44930;52.878;6.168;2023-02-28T14:49:18;7.20;99.90
59148;DHT22;44930;52.878;6.168;2023-02-28T14:51:45;7.10;99.90
59148;DHT22;44930;52.878;6.168;2023-02-28T14:54:15;7.00;99.90
59148;DHT22;44930;52.878;6.168;2023-02-28T14:56:41;7.30;99.90
59148;DHT22;44930;52.878;6.168;2023-02-28T14:59:28;7.40;99.90
59148;DHT22;44930;52.878;6.168;2023-02-28T15:02:17;7.60;99.90
59148;DHT22;44930;52.878;6.168;2023-02-28T15:04:43;7.60;99.90
59148;DHT22;44930;52.878;6.168;2023-02-28T15:07:17;7.90;99.90
59148;DHT22;44930;52.878;6.168;2023-02-28T15:09:42;8.00;99.90
59148;DHT22;44930;52.878;6.168;2023-02-28T15:12:14;8.40;99.90
59148;DHT22;44930;52.878;6.168;2023-02-28T15:14:43;8.20;99.90
59148;DHT22;44930;52.878;6.168;2023-02-28T15:17:16;8.30;99.90
59148;DHT22;44930;52.878;6.168;2023-02-28T15:19:48;8.30;99.90
59148;DHT22;44930;52.878;6.168;2023-02-28T15:22:20;8.60;99.90
59148;DHT22;44930;52.878;6.168;2023-02-28T15:24:51;8.30;99.90
59148;DHT22;44930;52.878;6.168;2023-02-28T15:27:27;7.90;99.90
59148;DHT22;44930;52.878;6.168;2023-02-28T15:29:56;8.20;99.90
59148;DHT22;44930;52.878;6.168;2023-02-28T15:32:28;8.10;99.90
59148;DHT22;44930;52.878;6.168;2023-02-28T15:34:55;8.10;99.90
59148;DHT22;44930;52.878;6.168;2023-02-28T15:37:44;8.10;99.90
59148;DHT22;44930;52.878;6.168;2023-02-28T15:40:17;8.10;99.90
59148;DHT22;44930;52.878;6.168;2023-02-28T15:43:03;8.30;99.90
59148;DHT22;44930;52.878;6.168;2023-02-28T15:45:52;8.60;99.90
59148;DHT22;44930;52.878;6.168;2023-02-28T15:50:55;9.90;99.90
59148;DHT22;44930;52.878;6.168;2023-02-28T15:53:28;10.20;99.90
59148;DHT22;44930;52.878;6.168;2023-02-28T15:56:01;10.40;99.90
59148;DHT22;44930;52.878;6.168;2023-02-28T15:58:28;10.30;99.90
59148;DHT22;44930;52.878;6.168;2023-02-28T16:01:05;10.20;99.90
59148;DHT22;44930;52.878;6.168;2023-02-28T16:03:42;9.60;99.90
59148;DHT22;44930;52.878;6.168;2023-02-28T16:08:50;8.80;99.90
59148;DHT22;44930;52.878;6.168;2023-02-28T16:11:17;8.50;99.90
59148;DHT22;44930;52.878;6.168;2023-02-28T16:13:43;8.20;99.90
59148;DHT22;44930;52.878;6.168;2023-02-28T16:16:22;8.10;99.90
59148;DHT22;44930;52.878;6.168;2023-02-28T16:18:47;7.90;99.90
59148;DHT22;44930;52.878;6.168;2023-02-28T16:23:39;7.50;99.90
59148;DHT22;44930;52.878;6.168;2023-02-28T16:28:34;7.00;99.90
59148;DHT22;44930;52.878;6.168;2023-02-28T16:31:02;6.90;99.90
59148;DHT22;44930;52.878;6.168;2023-02-28T16:33:29;6.80;99.90
59148;DHT22;44930;52.878;6.168;2023-02-28T16:35:55;6.70;99.90
59148;DHT22;44930;52.878;6.168;2023-02-28T16:38:21;6.60;99.90
59148;DHT22;44930;52.878;6.168;2023-02-28T16:40:49;6.50;99.90
59148;DHT22;44930;52.878;6.168;2023-02-28T16:43:17;6.30;99.90
59148;DHT22;44930;52.878;6.168;2023-02-28T16:45:44;6.50;99.90
59148;DHT22;44930;52.878;6.168;2023-02-28T16:50:38;5.90;99.90
59148;DHT22;44930;52.878;6.168;2023-02-28T16:53:04;5.80;99.90
59148;DHT22;44930;52.878;6.168;2023-02-28T16:55:30;5.70;99.90
59148;DHT22;44930;52.878;6.168;2023-02-28T16:57:58;5.50;99.90
59148;DHT22;44930;52.878;6.168;2023-02-28T17:00:25;5.60;99.90
59148;DHT22;44930;52.878;6.168;2023-02-28T17:02:51;5.50;99.90
59148;DHT22;44930;52.878;6.168;2023-02-28T17:05:17;5.50;99.90
59148;DHT22;44930;52.878;6.168;2023-02-28T17:07:44;5.30;99.90
59148;DHT22;44930;52.878;6.168;2023-02-28T17:10:16;5.40;99.90
59148;DHT22;44930;52.878;6.168;2023-02-28T17:12:42;5.10;99.90
59148;DHT22;44930;52.878;6.168;2023-02-28T17:17:41;5.10;99.90
59148;DHT22;44930;52.878;6.168;2023-02-28T17:20:15;5.10;99.90
59148;DHT22;44930;52.878;6.168;2023-02-28T17:22:41;5.00;99.90
59148;DHT22;44930;52.878;6.168;2023-02-28T17:25:08;5.00;99.90
59148;DHT22;44930;52.878;6.168;2023-02-28T17:27:34;4.90;99.90
59148;DHT22;44930;52.878;6.168;2023-02-28T17:29:59;4.80;99.90
59148;DHT22;44930;52.878;6.168;2023-02-28T17:32:26;4.70;99.90
59148;DHT22;44930;52.878;6.168;2023-02-28T17:34:53;4.60;99.90
59148;DHT22;44930;52.878;6.168;2023-02-28T17:37:18;4.60;99.90
59148;DHT22;44930;52.878;6.168;2023-02-28T17:39:44;4.60;99.90
59148;DHT22;44930;52.878;6.168;2023-02-28T17:42:09;4.50;99.90
59148;DHT22;44930;52.878;6.168;2023-02-28T17:44:35;4.50;99.90
59148;DHT22;44930;52.878;6.168;2023-02-28T17:47:03;4.10;99.90
59148;DHT22;44930;52.878;6.168;2023-02-28T17:49:29;4.30;99.90
59148;DHT22;44930;52.878;6.168;2023-02-28T17:51:54;4.20;99.90
59148;DHT22;44930;52.878;6.168;2023-02-28T17:54:20;4.00;99.90
59148;DHT22;44930;52.878;6.168;2023-02-28T17:56:46;4.10;99.90
59148;DHT22;44930;52.878;6.168;2023-02-28T17:59:12;4.10;99.90
59148;DHT22;44930;52.878;6.168;2023-02-28T18:01:38;4.10;99.90
59148;DHT22;44930;52.878;6.168;2023-02-28T18:04:03;4.10;99.90
59148;DHT22;44930;52.878;6.168;2023-02-28T18:09:16;3.90;99.90
59148;DHT22;44930;52.878;6.168;2023-02-28T18:11:42;3.80;99.90
59148;DHT22;44930;52.878;6.168;2023-02-28T18:14:10;3.80;99.90
59148;DHT22;44930;52.878;6.168;2023-02-28T18:16:36;3.70;99.90
59148;DHT22;44930;52.878;6.168;2023-02-28T18:19:03;3.60;99.90
59148;DHT22;44930;52.878;6.168;2023-02-28T18:21:29;3.50;99.90
59148;DHT22;44930;52.878;6.168;2023-02-28T18:23:54;3.60;99.90
59148;DHT22;44930;52.878;6.168;2023-02-28T18:26:20;3.40;99.90
59148;DHT22;44930;52.878;6.168;2023-02-28T18:28:46;3.40;99.90
59148;DHT22;44930;52.878;6.168;2023-02-28T18:31:13;3.50;99.90
59148;DHT22;44930;52.878;6.168;2023-02-28T18:33:41;3.30;99.90
59148;DHT22;44930;52.878;6.168;2023-02-28T18:36:07;3.30;99.90
59148;DHT22;44930;52.878;6.168;2023-02-28T18:38:32;3.20;99.90
59148;DHT22;44930;52.878;6.168;2023-02-28T18:41:00;3.20;99.90
59148;DHT22;44930;52.878;6.168;2023-02-28T18:43:28;3.20;99.90
59148;DHT22;44930;52.878;6.168;2023-02-28T18:45:53;3.10;99.90
59148;DHT22;44930;52.878;6.168;2023-02-28T18:48:19;3.10;99.90
59148;DHT22;44930;52.878;6.168;2023-02-28T18:53:13;3.00;99.90
59148;DHT22;44930;52.878;6.168;2023-02-28T18:55:39;2.90;99.90
59148;DHT22;44930;52.878;6.168;2023-02-28T18:58:04;2.80;99.90
59148;DHT22;44930;52.878;6.168;2023-02-28T19:00:30;3.00;99.90
59148;DHT22;44930;52.878;6.168;2023-02-28T19:05:22;3.00;99.90
59148;DHT22;44930;52.878;6.168;2023-02-28T19:07:48;2.90;99.90
59148;DHT22;44930;52.878;6.168;2023-02-28T19:10:14;3.10;99.90
59148;DHT22;44930;52.878;6.168;2023-02-28T19:15:10;2.80;99.90
59148;DHT22;44930;52.878;6.168;2023-02-28T19:20:06;2.90;99.90
59148;DHT22;44930;52.878;6.168;2023-02-28T19:22:32;2.80;99.90
59148;DHT22;44930;52.878;6.168;2023-02-28T19:24:58;2.80;99.90